| Date | Time | Temp. (oF) | Dew Point (oF) | Rel. Hum. (%) | Press. (in.) | Wind Dir. | Wind Speed (mph) | Hourly Rainfall (in.) |
|
|---|---|---|---|---|---|---|---|---|---|
| 1 | 02/19 | 00:00 | 23 | 13 | 67 | 30.45 | WSW | 0 | 0.00 |
| 2 | 02/18 | 23:00 | 25 | 14 | 63 | 30.45 | WSW | 0 | 0.00 |
| 3 | 02/18 | 22:00 | 27 | 12 | 55 | 30.45 | WSW | 4 | 0.00 |
| 4 | 02/18 | 21:00 | 27 | 11 | 52 | 30.43 | W | 2 | 0.00 |
| 5 | 02/18 | 20:00 | 29 | 10 | 46 | 30.41 | SSW | 3 | 0.00 |
| 6 | 02/18 | 19:00 | 31 | 12 | 45 | 30.40 | WSW | 4 | 0.00 |
| 7 | 02/18 | 18:00 | 31 | 10 | 42 | 30.37 | WSW | 5 | 0.00 |
| 8 | 02/18 | 17:00 | 32 | 10 | 40 | 30.35 | W | 4 | 0.00 |
| 9 | 02/18 | 16:00 | 31 | 9 | 40 | 30.36 | W | 9 | 0.00 |
| 10 | 02/18 | 15:00 | 30 | 9 | 41 | 30.36 | W | 12 | 0.00 |
| 11 | 02/18 | 14:00 | 30 | 9 | 42 | 30.40 | SSW | 8 | 0.00 |
| 12 | 02/18 | 13:00 | 29 | 9 | 43 | 30.43 | SW | 2 | 0.00 |
| 13 | 02/18 | 12:00 | 28 | 9 | 45 | 30.46 | WSW | 9 | 0.00 |
| 14 | 02/18 | 11:00 | 25 | 8 | 48 | 30.49 | WNW | 10 | 0.00 |
| 15 | 02/18 | 10:00 | 23 | 8 | 53 | 30.50 | SW | 4 | 0.00 |
| 16 | 02/18 | 09:00 | 21 | 6 | 53 | 30.51 | NW | 7 | 0.00 |
| 17 | 02/18 | 08:00 | 19 | 6 | 58 | 30.51 | NNW | 3 | 0.00 |
| 18 | 02/18 | 07:00 | 17 | 5 | 61 | 30.49 | WNW | 3 | 0.00 |
| 19 | 02/18 | 06:00 | 18 | 5 | 57 | 30.48 | NNW | 4 | 0.00 |
| 20 | 02/18 | 05:00 | 18 | 4 | 55 | 30.47 | NW | 6 | 0.00 |
| 21 | 02/18 | 04:00 | 18 | 4 | 56 | 30.46 | WNW | 4 | 0.00 |
| 22 | 02/18 | 03:00 | 19 | 6 | 57 | 30.45 | WNW | 9 | 0.00 |
| 23 | 02/18 | 02:00 | 20 | 6 | 56 | 30.44 | WNW | 5 | 0.00 |
| 24 | 02/18 | 01:00 | 20 | 5 | 53 | 30.42 | NW | 7 | 0.00 |